sensor_id;sensor_type;location;lat;lon;timestamp;pressure;altitude;pressure_sealevel;temperature;humidity
26807;BME280;14380;49.910;6.792;2023-06-26T00:01:04;98668.94;;;19.35;100.00
26807;BME280;14380;49.910;6.792;2023-06-26T00:03:31;98669.34;;;19.30;100.00
26807;BME280;14380;49.910;6.792;2023-06-26T00:05:58;98672.06;;;19.21;100.00
26807;BME280;14380;49.910;6.792;2023-06-26T00:08:26;98671.50;;;19.17;100.00
26807;BME280;14380;49.910;6.792;2023-06-26T00:10:52;98672.75;;;19.23;100.00
26807;BME280;14380;49.910;6.792;2023-06-26T00:13:21;98672.56;;;19.44;99.78
26807;BME280;14380;49.910;6.792;2023-06-26T00:15:48;98671.91;;;19.22;100.00
26807;BME280;14380;49.910;6.792;2023-06-26T00:18:14;98665.69;;;19.31;100.00
26807;BME280;14380;49.910;6.792;2023-06-26T00:20:41;98669.59;;;19.57;98.00
26807;BME280;14380;49.910;6.792;2023-06-26T00:23:07;98670.88;;;19.43;98.82
26807;BME280;14380;49.910;6.792;2023-06-26T00:25:34;98673.16;;;19.28;99.43
26807;BME280;14380;49.910;6.792;2023-06-26T00:28:00;98671.34;;;19.19;100.00
26807;BME280;14380;49.910;6.792;2023-06-26T00:30:28;98670.06;;;19.23;100.00
26807;BME280;14380;49.910;6.792;2023-06-26T00:32:55;98670.91;;;19.23;99.38
26807;BME280;14380;49.910;6.792;2023-06-26T00:35:21;98669.38;;;19.21;99.02
26807;BME280;14380;49.910;6.792;2023-06-26T00:37:47;98663.06;;;19.12;99.50
26807;BME280;14380;49.910;6.792;2023-06-26T00:40:14;98668.66;;;19.19;98.52
26807;BME280;14380;49.910;6.792;2023-06-26T00:42:41;98674.03;;;19.09;100.00
26807;BME280;14380;49.910;6.792;2023-06-26T00:45:08;98669.66;;;19.17;98.61
26807;BME280;14380;49.910;6.792;2023-06-26T00:47:36;98673.91;;;19.00;99.54
26807;BME280;14380;49.910;6.792;2023-06-26T00:50:04;98675.25;;;18.85;100.00
26807;BME280;14380;49.910;6.792;2023-06-26T00:52:31;98676.69;;;19.19;97.72
26807;BME280;14380;49.910;6.792;2023-06-26T00:54:57;98672.44;;;18.77;100.00
26807;BME280;14380;49.910;6.792;2023-06-26T00:57:24;98669.59;;;18.58;100.00
26807;BME280;14380;49.910;6.792;2023-06-26T00:59:51;98666.53;;;18.83;100.00
26807;BME280;14380;49.910;6.792;2023-06-26T01:02:17;98663.16;;;18.81;100.00
26807;BME280;14380;49.910;6.792;2023-06-26T01:04:47;98667.50;;;18.82;100.00
26807;BME280;14380;49.910;6.792;2023-06-26T01:07:15;98665.66;;;18.53;100.00
26807;BME280;14380;49.910;6.792;2023-06-26T01:09:44;98667.78;;;18.49;100.00
26807;BME280;14380;49.910;6.792;2023-06-26T01:12:11;98660.31;;;18.43;100.00
26807;BME280;14380;49.910;6.792;2023-06-26T01:14:38;98660.53;;;17.89;100.00
26807;BME280;14380;49.910;6.792;2023-06-26T01:17:04;98658.16;;;18.27;100.00
26807;BME280;14380;49.910;6.792;2023-06-26T01:19:33;98664.06;;;17.68;100.00
26807;BME280;14380;49.910;6.792;2023-06-26T01:22:06;98667.97;;;17.86;100.00
26807;BME280;14380;49.910;6.792;2023-06-26T01:24:42;98659.38;;;17.82;100.00
26807;BME280;14380;49.910;6.792;2023-06-26T01:27:12;98666.97;;;17.34;100.00
26807;BME280;14380;49.910;6.792;2023-06-26T01:29:40;98666.75;;;17.68;100.00
26807;BME280;14380;49.910;6.792;2023-06-26T01:32:08;98662.81;;;17.73;100.00
26807;BME280;14380;49.910;6.792;2023-06-26T01:34:34;98655.31;;;17.57;100.00
26807;BME280;14380;49.910;6.792;2023-06-26T01:37:01;98653.50;;;17.88;100.00
26807;BME280;14380;49.910;6.792;2023-06-26T01:39:28;98647.63;;;17.63;100.00
26807;BME280;14380;49.910;6.792;2023-06-26T01:41:54;98643.16;;;17.74;100.00
26807;BME280;14380;49.910;6.792;2023-06-26T01:44:28;98653.13;;;17.19;100.00
26807;BME280;14380;49.910;6.792;2023-06-26T01:46:59;98650.13;;;17.34;100.00
26807;BME280;14380;49.910;6.792;2023-06-26T01:49:33;98642.47;;;17.50;100.00
26807;BME280;14380;49.910;6.792;2023-06-26T01:52:07;98644.00;;;17.43;100.00
26807;BME280;14380;49.910;6.792;2023-06-26T01:54:39;98656.09;;;17.26;100.00
26807;BME280;14380;49.910;6.792;2023-06-26T01:57:09;98659.31;;;16.99;100.00
26807;BME280;14380;49.910;6.792;2023-06-26T01:59:38;98657.16;;;17.14;100.00
26807;BME280;14380;49.910;6.792;2023-06-26T02:02:06;98657.47;;;16.99;100.00
26807;BME280;14380;49.910;6.792;2023-06-26T02:04:33;98651.09;;;16.79;100.00
26807;BME280;14380;49.910;6.792;2023-06-26T02:06:59;98650.44;;;16.87;100.00
26807;BME280;14380;49.910;6.792;2023-06-26T02:09:26;98650.75;;;17.26;100.00
26807;BME280;14380;49.910;6.792;2023-06-26T02:11:52;98653.16;;;17.08;100.00
26807;BME280;14380;49.910;6.792;2023-06-26T02:14:19;98651.81;;;17.14;100.00
26807;BME280;14380;49.910;6.792;2023-06-26T02:16:46;98659.09;;;16.79;100.00
26807;BME280;14380;49.910;6.792;2023-06-26T02:19:13;98654.03;;;17.30;100.00
26807;BME280;14380;49.910;6.792;2023-06-26T02:21:46;98654.59;;;17.12;100.00
26807;BME280;14380;49.910;6.792;2023-06-26T02:24:13;98653.88;;;17.10;100.00
26807;BME280;14380;49.910;6.792;2023-06-26T02:26:39;98646.81;;;17.20;100.00
26807;BME280;14380;49.910;6.792;2023-06-26T02:29:06;98650.91;;;16.92;100.00
26807;BME280;14380;49.910;6.792;2023-06-26T02:31:32;98650.50;;;17.08;100.00
26807;BME280;14380;49.910;6.792;2023-06-26T02:34:00;98648.69;;;16.76;100.00
26807;BME280;14380;49.910;6.792;2023-06-26T02:36:26;98645.41;;;17.05;100.00
26807;BME280;14380;49.910;6.792;2023-06-26T02:38:53;98656.19;;;17.15;100.00
26807;BME280;14380;49.910;6.792;2023-06-26T02:41:19;98649.06;;;17.04;100.00
26807;BME280;14380;49.910;6.792;2023-06-26T02:43:46;98653.63;;;17.13;100.00
26807;BME280;14380;49.910;6.792;2023-06-26T02:46:12;98649.34;;;17.22;100.00
26807;BME280;14380;49.910;6.792;2023-06-26T02:48:39;98649.34;;;17.22;100.00
26807;BME280;14380;49.910;6.792;2023-06-26T02:51:07;98642.63;;;17.06;100.00
26807;BME280;14380;49.910;6.792;2023-06-26T02:53:34;98642.84;;;17.36;100.00
26807;BME280;14380;49.910;6.792;2023-06-26T02:56:00;98648.19;;;17.36;100.00
26807;BME280;14380;49.910;6.792;2023-06-26T02:58:27;98654.28;;;17.27;100.00
26807;BME280;14380;49.910;6.792;2023-06-26T03:00:53;98652.44;;;17.48;100.00
26807;BME280;14380;49.910;6.792;2023-06-26T03:03:23;98653.16;;;17.29;100.00
26807;BME280;14380;49.910;6.792;2023-06-26T03:05:49;98650.94;;;17.56;100.00
26807;BME280;14380;49.910;6.792;2023-06-26T03:08:17;98646.38;;;17.46;100.00
26807;BME280;14380;49.910;6.792;2023-06-26T03:10:44;98651.88;;;17.45;100.00
26807;BME280;14380;49.910;6.792;2023-06-26T03:13:11;98658.84;;;17.57;100.00
26807;BME280;14380;49.910;6.792;2023-06-26T03:15:37;98656.88;;;17.59;100.00
26807;BME280;14380;49.910;6.792;2023-06-26T03:18:04;98663.47;;;17.55;100.00
26807;BME280;14380;49.910;6.792;2023-06-26T03:20:30;98662.22;;;17.59;100.00
26807;BME280;14380;49.910;6.792;2023-06-26T03:22:56;98656.22;;;17.46;100.00
26807;BME280;14380;49.910;6.792;2023-06-26T03:25:24;98651.09;;;17.54;100.00
26807;BME280;14380;49.910;6.792;2023-06-26T03:27:51;98656.06;;;17.68;100.00
26807;BME280;14380;49.910;6.792;2023-06-26T03:30:17;98657.53;;;17.30;100.00
26807;BME280;14380;49.910;6.792;2023-06-26T03:32:44;98654.53;;;17.45;100.00
26807;BME280;14380;49.910;6.792;2023-06-26T03:35:10;98659.94;;;17.54;100.00
26807;BME280;14380;49.910;6.792;2023-06-26T03:37:37;98669.63;;;17.56;100.00
26807;BME280;14380;49.910;6.792;2023-06-26T03:40:03;98679.38;;;17.66;100.00
26807;BME280;14380;49.910;6.792;2023-06-26T03:42:32;98670.56;;;17.76;100.00
26807;BME280;14380;49.910;6.792;2023-06-26T03:44:58;98673.72;;;17.91;100.00
26807;BME280;14380;49.910;6.792;2023-06-26T03:47:25;98664.28;;;18.08;100.00
26807;BME280;14380;49.910;6.792;2023-06-26T03:49:51;98669.47;;;18.00;100.00
26807;BME280;14380;49.910;6.792;2023-06-26T03:52:18;98679.41;;;17.97;100.00
26807;BME280;14380;49.910;6.792;2023-06-26T03:54:44;98686.19;;;18.02;100.00
26807;BME280;14380;49.910;6.792;2023-06-26T03:57:11;98681.22;;;17.97;100.00
26807;BME280;14380;49.910;6.792;2023-06-26T03:59:38;98684.63;;;17.99;100.00
26807;BME280;14380;49.910;6.792;2023-06-26T04:02:05;98683.56;;;17.80;100.00
26807;BME280;14380;49.910;6.792;2023-06-26T04:04:32;98680.88;;;17.80;100.00
26807;BME280;14380;49.910;6.792;2023-06-26T04:07:00;98674.53;;;18.03;100.00
26807;BME280;14380;49.910;6.792;2023-06-26T04:09:27;98669.03;;;18.04;100.00
26807;BME280;14380;49.910;6.792;2023-06-26T04:11:54;98667.69;;;18.20;100.00
26807;BME280;14380;49.910;6.792;2023-06-26T04:14:20;98670.19;;;18.52;100.00
26807;BME280;14380;49.910;6.792;2023-06-26T04:16:48;98683.88;;;18.88;100.00
26807;BME280;14380;49.910;6.792;2023-06-26T04:19:15;98688.22;;;18.90;100.00
26807;BME280;14380;49.910;6.792;2023-06-26T04:21:41;98685.72;;;19.08;100.00
26807;BME280;14380;49.910;6.792;2023-06-26T04:24:08;98686.97;;;19.23;100.00
26807;BME280;14380;49.910;6.792;2023-06-26T04:26:34;98697.81;;;19.31;99.94
26807;BME280;14380;49.910;6.792;2023-06-26T04:29:01;98700.50;;;19.22;100.00
26807;BME280;14380;49.910;6.792;2023-06-26T04:31:28;98681.22;;;19.85;100.00
26807;BME280;14380;49.910;6.792;2023-06-26T04:33:56;98683.88;;;19.85;98.92
26807;BME280;14380;49.910;6.792;2023-06-26T04:36:25;98681.19;;;20.05;98.80
26807;BME280;14380;49.910;6.792;2023-06-26T04:38:53;98690.16;;;20.14;98.81
26807;BME280;14380;49.910;6.792;2023-06-26T04:41:20;98686.97;;;20.00;99.71
26807;BME280;14380;49.910;6.792;2023-06-26T04:43:47;98683.50;;;20.18;100.00
26807;BME280;14380;49.910;6.792;2023-06-26T04:46:13;98694.13;;;20.38;100.00
26807;BME280;14380;49.910;6.792;2023-06-26T04:48:40;98692.22;;;20.48;100.00
26807;BME280;14380;49.910;6.792;2023-06-26T04:51:08;98693.50;;;20.72;99.82
26807;BME280;14380;49.910;6.792;2023-06-26T04:53:34;98691.78;;;20.80;96.82
26807;BME280;14380;49.910;6.792;2023-06-26T04:56:01;98696.22;;;21.08;95.44
26807;BME280;14380;49.910;6.792;2023-06-26T04:58:27;98693.84;;;21.23;95.66
26807;BME280;14380;49.910;6.792;2023-06-26T05:00:54;98695.91;;;21.11;96.76
26807;BME280;14380;49.910;6.792;2023-06-26T05:03:21;98700.75;;;21.52;92.70
26807;BME280;14380;49.910;6.792;2023-06-26T05:05:48;98693.75;;;21.59;91.96
26807;BME280;14380;49.910;6.792;2023-06-26T05:08:17;98702.31;;;21.54;90.93
26807;BME280;14380;49.910;6.792;2023-06-26T05:10:44;98705.41;;;20.87;94.26
26807;BME280;14380;49.910;6.792;2023-06-26T05:13:11;98706.59;;;21.03;94.58
26807;BME280;14380;49.910;6.792;2023-06-26T05:15:40;98699.06;;;21.06;94.36
26807;BME280;14380;49.910;6.792;2023-06-26T05:18:07;98691.75;;;21.61;94.24
26807;BME280;14380;49.910;6.792;2023-06-26T05:20:34;98697.38;;;21.68;94.64
26807;BME280;14380;49.910;6.792;2023-06-26T05:23:01;98704.75;;;21.92;91.11
26807;BME280;14380;49.910;6.792;2023-06-26T05:25:29;98697.81;;;22.51;90.28
26807;BME280;14380;49.910;6.792;2023-06-26T05:27:56;98700.94;;;22.97;87.89
26807;BME280;14380;49.910;6.792;2023-06-26T05:30:24;98703.31;;;23.42;87.39
26807;BME280;14380;49.910;6.792;2023-06-26T05:32:52;98711.22;;;23.10;86.82
26807;BME280;14380;49.910;6.792;2023-06-26T05:35:20;98702.09;;;23.86;83.92
26807;BME280;14380;49.910;6.792;2023-06-26T05:37:48;98702.31;;;23.76;84.44
26807;BME280;14380;49.910;6.792;2023-06-26T05:40:16;98706.84;;;23.67;82.50
26807;BME280;14380;49.910;6.792;2023-06-26T05:42:45;98711.59;;;23.57;82.63
26807;BME280;14380;49.910;6.792;2023-06-26T05:45:11;98714.56;;;23.95;81.74
26807;BME280;14380;49.910;6.792;2023-06-26T05:47:38;98714.06;;;24.00;80.44
26807;BME280;14380;49.910;6.792;2023-06-26T05:50:06;98714.69;;;24.18;80.12
26807;BME280;14380;49.910;6.792;2023-06-26T05:52:33;98710.31;;;24.17;79.41
26807;BME280;14380;49.910;6.792;2023-06-26T05:55:01;98723.50;;;24.04;80.01
26807;BME280;14380;49.910;6.792;2023-06-26T05:57:28;98731.63;;;23.71;81.26
26807;BME280;14380;49.910;6.792;2023-06-26T05:59:57;98725.88;;;23.82;81.41
26807;BME280;14380;49.910;6.792;2023-06-26T06:02:23;98732.38;;;24.21;80.02
26807;BME280;14380;49.910;6.792;2023-06-26T06:04:50;98731.63;;;24.44;81.67
26807;BME280;14380;49.910;6.792;2023-06-26T06:07:16;98736.72;;;24.30;80.00
26807;BME280;14380;49.910;6.792;2023-06-26T06:09:43;98738.38;;;24.40;79.74
26807;BME280;14380;49.910;6.792;2023-06-26T06:12:10;98740.66;;;24.11;79.61
26807;BME280;14380;49.910;6.792;2023-06-26T06:14:36;98749.50;;;24.85;77.39
26807;BME280;14380;49.910;6.792;2023-06-26T06:17:04;98740.69;;;24.51;77.76
26807;BME280;14380;49.910;6.792;2023-06-26T06:19:30;98737.69;;;25.09;78.09
26807;BME280;14380;49.910;6.792;2023-06-26T06:21:57;98753.41;;;24.82;78.10
26807;BME280;14380;49.910;6.792;2023-06-26T06:24:23;98761.09;;;24.54;79.30
26807;BME280;14380;49.910;6.792;2023-06-26T06:26:50;98749.81;;;25.13;77.66
26807;BME280;14380;49.910;6.792;2023-06-26T06:29:16;98758.97;;;25.59;76.80
26807;BME280;14380;49.910;6.792;2023-06-26T06:31:44;98769.09;;;24.78;77.67
26807;BME280;14380;49.910;6.792;2023-06-26T06:34:13;98774.53;;;24.70;77.47
26807;BME280;14380;49.910;6.792;2023-06-26T06:36:39;98776.41;;;25.94;76.29
26807;BME280;14380;49.910;6.792;2023-06-26T06:39:06;98767.94;;;26.12;76.24
26807;BME280;14380;49.910;6.792;2023-06-26T06:41:32;98764.44;;;25.89;75.76
26807;BME280;14380;49.910;6.792;2023-06-26T06:43:59;98767.63;;;25.31;75.24
26807;BME280;14380;49.910;6.792;2023-06-26T06:46:26;98777.53;;;25.38;76.62
26807;BME280;14380;49.910;6.792;2023-06-26T06:48:52;98769.41;;;24.84;75.99
26807;BME280;14380;49.910;6.792;2023-06-26T06:51:20;98774.03;;;24.67;77.12
26807;BME280;14380;49.910;6.792;2023-06-26T06:53:47;98791.97;;;24.51;76.46
26807;BME280;14380;49.910;6.792;2023-06-26T06:56:13;98780.63;;;24.72;77.65
26807;BME280;14380;49.910;6.792;2023-06-26T06:58:40;98787.09;;;24.94;74.99
26807;BME280;14380;49.910;6.792;2023-06-26T07:01:07;98791.91;;;24.68;79.10
26807;BME280;14380;49.910;6.792;2023-06-26T07:03:34;98794.84;;;24.49;74.02
26807;BME280;14380;49.910;6.792;2023-06-26T07:06:01;98800.84;;;24.76;71.77
26807;BME280;14380;49.910;6.792;2023-06-26T07:08:29;98803.38;;;24.78;73.68
26807;BME280;14380;49.910;6.792;2023-06-26T07:10:56;98801.91;;;24.59;74.33
26807;BME280;14380;49.910;6.792;2023-06-26T07:13:23;98801.03;;;24.18;75.25
26807;BME280;14380;49.910;6.792;2023-06-26T07:15:49;98802.41;;;24.54;72.84
26807;BME280;14380;49.910;6.792;2023-06-26T07:18:16;98797.31;;;24.68;72.95
26807;BME280;14380;49.910;6.792;2023-06-26T07:20:43;98798.31;;;24.18;76.18
26807;BME280;14380;49.910;6.792;2023-06-26T07:23:09;98798.84;;;24.70;74.23
26807;BME280;14380;49.910;6.792;2023-06-26T07:25:37;98797.66;;;24.73;73.54
26807;BME280;14380;49.910;6.792;2023-06-26T07:28:09;98801.66;;;25.40;72.22
26807;BME280;14380;49.910;6.792;2023-06-26T07:30:36;98804.59;;;25.30;69.91
26807;BME280;14380;49.910;6.792;2023-06-26T07:33:03;98802.66;;;25.86;69.53
26807;BME280;14380;49.910;6.792;2023-06-26T07:35:29;98790.84;;;26.40;68.70
26807;BME280;14380;49.910;6.792;2023-06-26T07:37:56;98797.38;;;25.92;66.57
26807;BME280;14380;49.910;6.792;2023-06-26T07:40:22;98797.19;;;25.94;68.61
26807;BME280;14380;49.910;6.792;2023-06-26T07:42:50;98789.06;;;25.56;66.79
26807;BME280;14380;49.910;6.792;2023-06-26T07:45:17;98797.03;;;25.95;69.99
26807;BME280;14380;49.910;6.792;2023-06-26T07:47:43;98798.09;;;25.71;67.19
26807;BME280;14380;49.910;6.792;2023-06-26T07:50:10;98811.84;;;26.38;66.76
26807;BME280;14380;49.910;6.792;2023-06-26T07:52:36;98811.53;;;27.08;67.66
26807;BME280;14380;49.910;6.792;2023-06-26T07:55:04;98819.78;;;26.69;66.93
26807;BME280;14380;49.910;6.792;2023-06-26T07:57:30;98818.94;;;26.24;64.28
26807;BME280;14380;49.910;6.792;2023-06-26T07:59:58;98813.41;;;26.32;63.74
26807;BME280;14380;49.910;6.792;2023-06-26T08:02:25;98808.44;;;26.96;64.58
26807;BME280;14380;49.910;6.792;2023-06-26T08:04:51;98798.84;;;27.30;64.58
26807;BME280;14380;49.910;6.792;2023-06-26T08:07:18;98808.00;;;26.32;64.15
26807;BME280;14380;49.910;6.792;2023-06-26T08:09:45;98815.75;;;26.50;65.54
26807;BME280;14380;49.910;6.792;2023-06-26T08:12:11;98797.00;;;27.52;65.77
26807;BME280;14380;49.910;6.792;2023-06-26T08:14:37;98806.81;;;28.03;65.04
26807;BME280;14380;49.910;6.792;2023-06-26T08:17:05;98800.16;;;27.78;60.73
26807;BME280;14380;49.910;6.792;2023-06-26T08:19:32;98807.13;;;27.65;60.42
26807;BME280;14380;49.910;6.792;2023-06-26T08:21:58;98811.09;;;27.26;62.02
26807;BME280;14380;49.910;6.792;2023-06-26T08:24:25;98808.09;;;28.08;60.62
26807;BME280;14380;49.910;6.792;2023-06-26T08:26:51;98815.00;;;27.01;59.59
26807;BME280;14380;49.910;6.792;2023-06-26T08:29:18;98804.81;;;27.25;59.64
26807;BME280;14380;49.910;6.792;2023-06-26T08:31:44;98801.38;;;28.25;60.60
26807;BME280;14380;49.910;6.792;2023-06-26T08:34:12;98806.84;;;28.32;58.78
26807;BME280;14380;49.910;6.792;2023-06-26T08:36:39;98813.66;;;28.21;58.66
26807;BME280;14380;49.910;6.792;2023-06-26T08:39:05;98820.78;;;26.98;56.56
26807;BME280;14380;49.910;6.792;2023-06-26T08:41:33;98820.78;;;26.98;58.07
26807;BME280;14380;49.910;6.792;2023-06-26T08:44:00;98826.69;;;26.87;59.68
26807;BME280;14380;49.910;6.792;2023-06-26T08:46:28;98826.69;;;26.57;60.15
26807;BME280;14380;49.910;6.792;2023-06-26T08:48:56;98831.16;;;26.50;59.64
26807;BME280;14380;49.910;6.792;2023-06-26T08:51:27;98834.19;;;27.22;61.86
26807;BME280;14380;49.910;6.792;2023-06-26T08:53:56;98829.75;;;27.14;59.84
26807;BME280;14380;49.910;6.792;2023-06-26T08:56:24;98832.28;;;27.00;62.42
26807;BME280;14380;49.910;6.792;2023-06-26T08:58:51;98836.94;;;27.07;61.28
26807;BME280;14380;49.910;6.792;2023-06-26T09:01:18;98831.16;;;27.31;63.98
26807;BME280;14380;49.910;6.792;2023-06-26T09:03:45;98829.44;;;27.89;62.26
26807;BME280;14380;49.910;6.792;2023-06-26T09:06:11;98839.31;;;27.31;62.44
26807;BME280;14380;49.910;6.792;2023-06-26T09:08:40;98843.91;;;27.31;60.46
26807;BME280;14380;49.910;6.792;2023-06-26T09:11:06;98855.06;;;28.08;62.33
26807;BME280;14380;49.910;6.792;2023-06-26T09:13:33;98845.84;;;28.02;62.05
26807;BME280;14380;49.910;6.792;2023-06-26T09:16:04;98854.72;;;28.40;61.41
26807;BME280;14380;49.910;6.792;2023-06-26T09:18:33;98841.97;;;27.90;64.24
26807;BME280;14380;49.910;6.792;2023-06-26T09:21:00;98849.16;;;27.98;64.76
26807;BME280;14380;49.910;6.792;2023-06-26T09:23:26;98857.06;;;27.93;64.37
26807;BME280;14380;49.910;6.792;2023-06-26T09:25:55;98865.38;;;27.33;64.39
26807;BME280;14380;49.910;6.792;2023-06-26T09:28:21;98858.00;;;26.90;63.73
26807;BME280;14380;49.910;6.792;2023-06-26T09:30:48;98862.97;;;27.23;63.73
26807;BME280;14380;49.910;6.792;2023-06-26T09:33:16;98853.03;;;27.67;63.66
26807;BME280;14380;49.910;6.792;2023-06-26T09:35:43;98844.03;;;27.88;62.62
26807;BME280;14380;49.910;6.792;2023-06-26T09:38:11;98847.22;;;27.70;62.25
26807;BME280;14380;49.910;6.792;2023-06-26T09:40:38;98843.09;;;27.52;62.10
26807;BME280;14380;49.910;6.792;2023-06-26T09:43:07;98832.38;;;27.87;62.40
26807;BME280;14380;49.910;6.792;2023-06-26T09:45:34;98835.59;;;28.26;61.96
26807;BME280;14380;49.910;6.792;2023-06-26T09:48:01;98836.34;;;28.42;63.02
26807;BME280;14380;49.910;6.792;2023-06-26T09:50:29;98843.31;;;28.51;59.56
26807;BME280;14380;49.910;6.792;2023-06-26T09:52:57;98852.31;;;28.23;60.16
26807;BME280;14380;49.910;6.792;2023-06-26T09:55:25;98856.09;;;27.79;60.02
26807;BME280;14380;49.910;6.792;2023-06-26T09:57:52;98843.91;;;27.31;61.28
26807;BME280;14380;49.910;6.792;2023-06-26T10:00:24;98842.72;;;27.55;62.19
26807;BME280;14380;49.910;6.792;2023-06-26T10:02:50;98860.22;;;28.46;60.28
26807;BME280;14380;49.910;6.792;2023-06-26T10:05:17;98858.75;;;28.50;59.67
26807;BME280;14380;49.910;6.792;2023-06-26T10:07:44;98855.03;;;28.01;60.09
26807;BME280;14380;49.910;6.792;2023-06-26T10:10:12;98848.69;;;27.94;60.37
26807;BME280;14380;49.910;6.792;2023-06-26T10:12:39;98863.09;;;28.45;58.88
26807;BME280;14380;49.910;6.792;2023-06-26T10:15:06;98858.09;;;28.48;59.21
26807;BME280;14380;49.910;6.792;2023-06-26T10:17:39;98857.44;;;29.23;58.49
26807;BME280;14380;49.910;6.792;2023-06-26T10:20:09;98859.06;;;29.04;57.74
26807;BME280;14380;49.910;6.792;2023-06-26T10:22:41;98857.03;;;29.13;58.18
26807;BME280;14380;49.910;6.792;2023-06-26T10:25:10;98858.78;;;28.86;56.43
26807;BME280;14380;49.910;6.792;2023-06-26T10:27:42;98854.56;;;28.76;56.69
26807;BME280;14380;49.910;6.792;2023-06-26T10:30:14;98867.19;;;28.91;56.34
26807;BME280;14380;49.910;6.792;2023-06-26T10:32:44;98874.78;;;29.09;55.69
26807;BME280;14380;49.910;6.792;2023-06-26T10:35:11;98870.72;;;29.40;56.21
26807;BME280;14380;49.910;6.792;2023-06-26T10:37:42;98879.34;;;29.02;57.83
26807;BME280;14380;49.910;6.792;2023-06-26T10:40:10;98871.91;;;28.18;56.58
26807;BME280;14380;49.910;6.792;2023-06-26T10:42:38;98873.34;;;27.93;56.88
26807;BME280;14380;49.910;6.792;2023-06-26T10:45:14;98883.34;;;29.13;55.74
26807;BME280;14380;49.910;6.792;2023-06-26T10:47:41;98884.13;;;28.64;56.68
26807;BME280;14380;49.910;6.792;2023-06-26T10:50:21;98880.22;;;29.09;53.81
26807;BME280;14380;49.910;6.792;2023-06-26T10:53:11;98894.28;;;28.49;52.87
26807;BME280;14380;49.910;6.792;2023-06-26T10:55:43;98887.16;;;27.76;54.22
26807;BME280;14380;49.910;6.792;2023-06-26T11:01:14;98892.22;;;28.58;51.84
26807;BME280;14380;49.910;6.792;2023-06-26T11:03:41;98900.63;;;28.63;54.87
26807;BME280;14380;49.910;6.792;2023-06-26T11:06:10;98909.50;;;28.22;54.74
26807;BME280;14380;49.910;6.792;2023-06-26T11:08:46;98910.91;;;28.68;52.63
26807;BME280;14380;49.910;6.792;2023-06-26T11:11:13;98907.88;;;28.77;51.78
26807;BME280;14380;49.910;6.792;2023-06-26T11:13:40;98910.75;;;28.76;51.96
26807;BME280;14380;49.910;6.792;2023-06-26T11:16:07;98907.47;;;28.52;52.09
26807;BME280;14380;49.910;6.792;2023-06-26T11:18:33;98915.63;;;28.59;51.99
26807;BME280;14380;49.910;6.792;2023-06-26T11:21:07;98909.56;;;28.85;50.54
26807;BME280;14380;49.910;6.792;2023-06-26T11:23:36;98902.81;;;28.46;51.56
26807;BME280;14380;49.910;6.792;2023-06-26T11:26:18;98910.34;;;28.50;51.83
26807;BME280;14380;49.910;6.792;2023-06-26T11:28:48;98908.88;;;28.48;49.93
26807;BME280;14380;49.910;6.792;2023-06-26T11:31:25;98904.50;;;28.47;51.01
26807;BME280;14380;49.910;6.792;2023-06-26T11:33:52;98911.94;;;27.73;50.09
26807;BME280;14380;49.910;6.792;2023-06-26T11:36:19;98907.50;;;28.09;51.74
26807;BME280;14380;49.910;6.792;2023-06-26T11:38:52;98917.25;;;28.46;51.70
26807;BME280;14380;49.910;6.792;2023-06-26T11:41:19;98916.78;;;28.71;51.11
26807;BME280;14380;49.910;6.792;2023-06-26T11:43:45;98905.00;;;28.92;50.75
26807;BME280;14380;49.910;6.792;2023-06-26T11:46:12;98916.19;;;28.76;51.89
26807;BME280;14380;49.910;6.792;2023-06-26T11:48:38;98922.94;;;29.22;51.22
26807;BME280;14380;49.910;6.792;2023-06-26T11:51:05;98916.25;;;28.83;48.60
26807;BME280;14380;49.910;6.792;2023-06-26T11:53:39;98923.47;;;29.04;48.94
26807;BME280;14380;49.910;6.792;2023-06-26T11:56:09;98930.50;;;28.91;49.78
26807;BME280;14380;49.910;6.792;2023-06-26T11:58:36;98930.19;;;28.44;49.22
26807;BME280;14380;49.910;6.792;2023-06-26T12:01:02;98931.09;;;29.22;49.55
26807;BME280;14380;49.910;6.792;2023-06-26T12:03:29;98927.53;;;29.21;48.36
26807;BME280;14380;49.910;6.792;2023-06-26T12:05:58;98925.94;;;28.92;48.33
26807;BME280;14380;49.910;6.792;2023-06-26T12:08:26;98935.66;;;28.51;49.72
26807;BME280;14380;49.910;6.792;2023-06-26T12:10:53;98929.91;;;28.96;50.19
26807;BME280;14380;49.910;6.792;2023-06-26T12:13:20;98930.47;;;29.20;50.08
26807;BME280;14380;49.910;6.792;2023-06-26T12:15:47;98932.00;;;28.66;49.84
26807;BME280;14380;49.910;6.792;2023-06-26T12:18:14;98942.78;;;28.52;49.58
26807;BME280;14380;49.910;6.792;2023-06-26T12:20:40;98928.28;;;29.02;49.62
26807;BME280;14380;49.910;6.792;2023-06-26T12:23:11;98923.50;;;28.47;48.85
26807;BME280;14380;49.910;6.792;2023-06-26T12:25:38;98917.78;;;28.63;51.69
26807;BME280;14380;49.910;6.792;2023-06-26T12:28:15;98916.97;;;29.40;50.47
26807;BME280;14380;49.910;6.792;2023-06-26T12:30:46;98929.41;;;29.21;50.50
26807;BME280;14380;49.910;6.792;2023-06-26T12:33:14;98939.75;;;28.97;49.24
26807;BME280;14380;49.910;6.792;2023-06-26T12:35:40;98921.31;;;29.34;51.18
26807;BME280;14380;49.910;6.792;2023-06-26T12:38:08;98940.28;;;28.29;50.74
26807;BME280;14380;49.910;6.792;2023-06-26T12:40:44;98936.56;;;28.58;51.02
26807;BME280;14380;49.910;6.792;2023-06-26T12:43:11;98923.72;;;29.09;50.29
26807;BME280;14380;49.910;6.792;2023-06-26T12:45:54;98928.34;;;28.52;49.58
26807;BME280;14380;49.910;6.792;2023-06-26T12:48:20;98931.00;;;28.73;50.11
26807;BME280;14380;49.910;6.792;2023-06-26T12:50:47;98936.09;;;28.83;50.80
26807;BME280;14380;49.910;6.792;2023-06-26T12:53:15;98941.41;;;28.98;49.65
26807;BME280;14380;49.910;6.792;2023-06-26T12:55:42;98935.13;;;28.91;50.61
26807;BME280;14380;49.910;6.792;2023-06-26T12:58:08;98946.31;;;29.51;49.74
26807;BME280;14380;49.910;6.792;2023-06-26T13:00:35;98953.28;;;29.26;50.54
26807;BME280;14380;49.910;6.792;2023-06-26T13:03:03;98952.41;;;29.60;49.51